sensor_id;sensor_type;location;lat;lon;timestamp;temperature;humidity
24226;DHT22;51462;51.422;5.514;2023-07-28T00:00:43;17.90;99.90
24226;DHT22;51462;51.422;5.514;2023-07-28T00:03:09;17.90;99.90
24226;DHT22;51462;51.422;5.514;2023-07-28T00:05:36;17.90;99.90
24226;DHT22;51462;51.422;5.514;2023-07-28T00:08:02;17.90;99.90
24226;DHT22;51462;51.422;5.514;2023-07-28T00:10:27;17.90;99.90
24226;DHT22;51462;51.422;5.514;2023-07-28T00:12:53;18.00;99.90
24226;DHT22;51462;51.422;5.514;2023-07-28T00:15:19;17.90;99.90
24226;DHT22;51462;51.422;5.514;2023-07-28T00:17:44;17.90;99.90
24226;DHT22;51462;51.422;5.514;2023-07-28T00:20:11;17.90;99.90
24226;DHT22;51462;51.422;5.514;2023-07-28T00:22:36;17.90;99.90
24226;DHT22;51462;51.422;5.514;2023-07-28T00:25:02;17.90;99.90
24226;DHT22;51462;51.422;5.514;2023-07-28T00:27:28;17.90;99.90
24226;DHT22;51462;51.422;5.514;2023-07-28T00:29:53;17.90;99.90
24226;DHT22;51462;51.422;5.514;2023-07-28T00:32:19;17.90;99.90
24226;DHT22;51462;51.422;5.514;2023-07-28T00:34:44;17.90;99.90
24226;DHT22;51462;51.422;5.514;2023-07-28T00:37:10;18.00;99.90
24226;DHT22;51462;51.422;5.514;2023-07-28T00:39:36;17.90;99.90
24226;DHT22;51462;51.422;5.514;2023-07-28T00:42:01;17.90;99.90
24226;DHT22;51462;51.422;5.514;2023-07-28T00:44:27;18.00;99.90
24226;DHT22;51462;51.422;5.514;2023-07-28T00:46:53;18.00;99.90
24226;DHT22;51462;51.422;5.514;2023-07-28T00:49:18;18.00;99.90
24226;DHT22;51462;51.422;5.514;2023-07-28T00:51:44;18.00;99.90
24226;DHT22;51462;51.422;5.514;2023-07-28T00:54:11;18.00;99.90
24226;DHT22;51462;51.422;5.514;2023-07-28T00:56:37;18.00;99.90
24226;DHT22;51462;51.422;5.514;2023-07-28T00:59:03;18.00;99.90
24226;DHT22;51462;51.422;5.514;2023-07-28T01:01:29;18.00;99.90
24226;DHT22;51462;51.422;5.514;2023-07-28T01:03:54;18.00;99.90
24226;DHT22;51462;51.422;5.514;2023-07-28T01:06:33;18.00;99.90
24226;DHT22;51462;51.422;5.514;2023-07-28T01:09:09;18.00;99.90
24226;DHT22;51462;51.422;5.514;2023-07-28T01:11:36;18.00;99.90
24226;DHT22;51462;51.422;5.514;2023-07-28T01:14:02;18.00;99.90
24226;DHT22;51462;51.422;5.514;2023-07-28T01:16:27;18.10;99.90
24226;DHT22;51462;51.422;5.514;2023-07-28T01:18:53;18.10;99.90
24226;DHT22;51462;51.422;5.514;2023-07-28T01:21:26;18.00;99.90
24226;DHT22;51462;51.422;5.514;2023-07-28T01:26:36;18.00;99.90
24226;DHT22;51462;51.422;5.514;2023-07-28T01:29:03;18.10;99.90
24226;DHT22;51462;51.422;5.514;2023-07-28T01:31:29;18.10;99.90
24226;DHT22;51462;51.422;5.514;2023-07-28T01:33:55;18.10;99.90
24226;DHT22;51462;51.422;5.514;2023-07-28T01:36:20;18.10;99.90
24226;DHT22;51462;51.422;5.514;2023-07-28T01:38:46;18.10;99.90
24226;DHT22;51462;51.422;5.514;2023-07-28T01:41:12;18.00;99.90
24226;DHT22;51462;51.422;5.514;2023-07-28T01:43:37;18.00;99.90
24226;DHT22;51462;51.422;5.514;2023-07-28T01:46:03;18.00;99.90
24226;DHT22;51462;51.422;5.514;2023-07-28T01:48:29;18.00;99.90
24226;DHT22;51462;51.422;5.514;2023-07-28T01:50:55;18.00;99.90
24226;DHT22;51462;51.422;5.514;2023-07-28T01:53:21;18.00;99.90
24226;DHT22;51462;51.422;5.514;2023-07-28T01:55:46;18.00;99.90
24226;DHT22;51462;51.422;5.514;2023-07-28T01:58:12;18.00;99.90
24226;DHT22;51462;51.422;5.514;2023-07-28T02:00:37;18.00;99.90
24226;DHT22;51462;51.422;5.514;2023-07-28T02:03:03;18.00;99.90
24226;DHT22;51462;51.422;5.514;2023-07-28T02:05:29;18.00;99.90
24226;DHT22;51462;51.422;5.514;2023-07-28T02:07:56;17.90;99.90
24226;DHT22;51462;51.422;5.514;2023-07-28T02:10:26;18.00;99.90
24226;DHT22;51462;51.422;5.514;2023-07-28T02:12:52;17.90;99.90
24226;DHT22;51462;51.422;5.514;2023-07-28T02:15:17;18.00;99.90
24226;DHT22;51462;51.422;5.514;2023-07-28T02:17:43;18.00;99.90
24226;DHT22;51462;51.422;5.514;2023-07-28T02:20:09;17.90;99.90
24226;DHT22;51462;51.422;5.514;2023-07-28T02:22:44;17.90;99.90
24226;DHT22;51462;51.422;5.514;2023-07-28T02:25:09;18.00;99.90
24226;DHT22;51462;51.422;5.514;2023-07-28T02:27:36;17.90;99.90
24226;DHT22;51462;51.422;5.514;2023-07-28T02:30:03;17.90;99.90
24226;DHT22;51462;51.422;5.514;2023-07-28T02:32:29;18.00;99.90
24226;DHT22;51462;51.422;5.514;2023-07-28T02:34:55;18.00;99.90
24226;DHT22;51462;51.422;5.514;2023-07-28T02:37:20;17.90;99.90
24226;DHT22;51462;51.422;5.514;2023-07-28T02:39:46;17.90;99.90
24226;DHT22;51462;51.422;5.514;2023-07-28T02:42:12;17.90;99.90
24226;DHT22;51462;51.422;5.514;2023-07-28T02:44:38;18.00;99.90
24226;DHT22;51462;51.422;5.514;2023-07-28T02:47:04;17.90;99.90
24226;DHT22;51462;51.422;5.514;2023-07-28T02:49:30;17.90;99.90
24226;DHT22;51462;51.422;5.514;2023-07-28T02:51:55;17.90;99.90
24226;DHT22;51462;51.422;5.514;2023-07-28T02:54:21;17.90;99.90
24226;DHT22;51462;51.422;5.514;2023-07-28T02:56:49;17.90;99.90
24226;DHT22;51462;51.422;5.514;2023-07-28T02:59:15;17.90;99.90
24226;DHT22;51462;51.422;5.514;2023-07-28T03:01:40;17.90;99.90
24226;DHT22;51462;51.422;5.514;2023-07-28T03:04:06;17.90;99.90
24226;DHT22;51462;51.422;5.514;2023-07-28T03:06:32;17.90;99.90
24226;DHT22;51462;51.422;5.514;2023-07-28T03:09:00;17.80;99.90
24226;DHT22;51462;51.422;5.514;2023-07-28T03:11:26;17.90;99.90
24226;DHT22;51462;51.422;5.514;2023-07-28T03:13:51;17.90;99.90
24226;DHT22;51462;51.422;5.514;2023-07-28T03:16:17;17.90;99.90
24226;DHT22;51462;51.422;5.514;2023-07-28T03:18:43;17.90;99.90
24226;DHT22;51462;51.422;5.514;2023-07-28T03:21:09;17.80;99.90
24226;DHT22;51462;51.422;5.514;2023-07-28T03:23:34;17.90;99.90
24226;DHT22;51462;51.422;5.514;2023-07-28T03:26:00;17.90;99.90
24226;DHT22;51462;51.422;5.514;2023-07-28T03:28:25;17.90;99.90
24226;DHT22;51462;51.422;5.514;2023-07-28T03:30:51;17.90;99.90
24226;DHT22;51462;51.422;5.514;2023-07-28T03:33:17;18.00;99.90
24226;DHT22;51462;51.422;5.514;2023-07-28T03:35:42;18.00;99.90
24226;DHT22;51462;51.422;5.514;2023-07-28T03:38:08;17.90;99.90
24226;DHT22;51462;51.422;5.514;2023-07-28T03:40:34;18.00;99.90
24226;DHT22;51462;51.422;5.514;2023-07-28T03:43:00;18.00;99.90
24226;DHT22;51462;51.422;5.514;2023-07-28T03:45:25;18.00;99.90
24226;DHT22;51462;51.422;5.514;2023-07-28T03:47:51;18.00;99.90
24226;DHT22;51462;51.422;5.514;2023-07-28T03:50:16;18.00;99.90
24226;DHT22;51462;51.422;5.514;2023-07-28T03:52:42;18.00;99.90
24226;DHT22;51462;51.422;5.514;2023-07-28T03:55:08;18.00;99.90
24226;DHT22;51462;51.422;5.514;2023-07-28T03:57:33;18.00;99.90
24226;DHT22;51462;51.422;5.514;2023-07-28T03:59:59;18.00;99.90
24226;DHT22;51462;51.422;5.514;2023-07-28T04:02:24;18.00;99.90
24226;DHT22;51462;51.422;5.514;2023-07-28T04:04:54;18.00;99.90
24226;DHT22;51462;51.422;5.514;2023-07-28T04:07:20;17.90;99.90
24226;DHT22;51462;51.422;5.514;2023-07-28T04:09:46;17.90;99.90
24226;DHT22;51462;51.422;5.514;2023-07-28T04:12:11;18.00;99.90
24226;DHT22;51462;51.422;5.514;2023-07-28T04:14:37;18.00;99.90
24226;DHT22;51462;51.422;5.514;2023-07-28T04:17:03;17.90;99.90
24226;DHT22;51462;51.422;5.514;2023-07-28T04:19:28;18.00;99.90
24226;DHT22;51462;51.422;5.514;2023-07-28T04:21:56;17.90;99.90
24226;DHT22;51462;51.422;5.514;2023-07-28T04:24:22;18.00;99.90
24226;DHT22;51462;51.422;5.514;2023-07-28T04:26:48;18.00;99.90
24226;DHT22;51462;51.422;5.514;2023-07-28T04:29:16;18.00;99.90
24226;DHT22;51462;51.422;5.514;2023-07-28T04:31:42;18.00;99.90
24226;DHT22;51462;51.422;5.514;2023-07-28T04:34:07;18.00;99.90
24226;DHT22;51462;51.422;5.514;2023-07-28T04:36:33;18.00;99.90
24226;DHT22;51462;51.422;5.514;2023-07-28T04:38:59;18.00;99.90
24226;DHT22;51462;51.422;5.514;2023-07-28T04:41:24;18.00;99.90
24226;DHT22;51462;51.422;5.514;2023-07-28T04:43:50;18.00;99.90
24226;DHT22;51462;51.422;5.514;2023-07-28T04:46:15;18.00;99.90
24226;DHT22;51462;51.422;5.514;2023-07-28T04:48:41;18.00;99.90
24226;DHT22;51462;51.422;5.514;2023-07-28T04:51:06;18.00;99.90
24226;DHT22;51462;51.422;5.514;2023-07-28T04:53:32;18.00;99.90
24226;DHT22;51462;51.422;5.514;2023-07-28T04:55:58;18.00;99.90
24226;DHT22;51462;51.422;5.514;2023-07-28T04:58:23;18.00;99.90
24226;DHT22;51462;51.422;5.514;2023-07-28T05:00:49;18.00;99.90
24226;DHT22;51462;51.422;5.514;2023-07-28T05:03:14;18.00;99.90
24226;DHT22;51462;51.422;5.514;2023-07-28T05:05:43;18.10;99.90
24226;DHT22;51462;51.422;5.514;2023-07-28T05:08:09;18.10;99.90
24226;DHT22;51462;51.422;5.514;2023-07-28T05:10:35;18.00;99.90
24226;DHT22;51462;51.422;5.514;2023-07-28T05:13:00;18.00;99.90
24226;DHT22;51462;51.422;5.514;2023-07-28T05:15:26;18.00;99.90
24226;DHT22;51462;51.422;5.514;2023-07-28T05:17:52;18.00;99.90
24226;DHT22;51462;51.422;5.514;2023-07-28T05:20:17;18.00;99.90
24226;DHT22;51462;51.422;5.514;2023-07-28T05:22:43;18.10;99.90
24226;DHT22;51462;51.422;5.514;2023-07-28T05:25:08;18.10;99.90
24226;DHT22;51462;51.422;5.514;2023-07-28T05:27:34;18.10;99.90
24226;DHT22;51462;51.422;5.514;2023-07-28T05:29:59;18.10;99.90
24226;DHT22;51462;51.422;5.514;2023-07-28T05:32:25;18.10;99.90
24226;DHT22;51462;51.422;5.514;2023-07-28T05:34:51;18.10;99.90
24226;DHT22;51462;51.422;5.514;2023-07-28T05:37:16;18.20;99.90
24226;DHT22;51462;51.422;5.514;2023-07-28T05:39:42;18.10;99.90
24226;DHT22;51462;51.422;5.514;2023-07-28T05:42:08;18.10;99.90
24226;DHT22;51462;51.422;5.514;2023-07-28T05:44:34;18.10;99.90
24226;DHT22;51462;51.422;5.514;2023-07-28T05:46:59;18.10;99.90
24226;DHT22;51462;51.422;5.514;2023-07-28T05:49:25;18.20;99.90
24226;DHT22;51462;51.422;5.514;2023-07-28T05:51:50;18.20;99.90
24226;DHT22;51462;51.422;5.514;2023-07-28T05:54:16;18.20;99.90
24226;DHT22;51462;51.422;5.514;2023-07-28T05:56:42;18.30;99.90
24226;DHT22;51462;51.422;5.514;2023-07-28T05:59:08;18.20;99.90
24226;DHT22;51462;51.422;5.514;2023-07-28T06:01:34;18.20;99.90
24226;DHT22;51462;51.422;5.514;2023-07-28T06:04:00;18.30;99.90
24226;DHT22;51462;51.422;5.514;2023-07-28T06:06:26;18.40;99.90
24226;DHT22;51462;51.422;5.514;2023-07-28T06:08:52;18.40;99.90
24226;DHT22;51462;51.422;5.514;2023-07-28T06:11:18;18.40;99.90
24226;DHT22;51462;51.422;5.514;2023-07-28T06:13:43;18.50;99.90
24226;DHT22;51462;51.422;5.514;2023-07-28T06:16:10;18.50;99.90
24226;DHT22;51462;51.422;5.514;2023-07-28T06:18:36;18.40;99.90
24226;DHT22;51462;51.422;5.514;2023-07-28T06:21:01;18.50;99.90
24226;DHT22;51462;51.422;5.514;2023-07-28T06:23:27;18.50;99.90
24226;DHT22;51462;51.422;5.514;2023-07-28T06:25:52;18.40;99.90
24226;DHT22;51462;51.422;5.514;2023-07-28T06:28:20;18.50;99.90
24226;DHT22;51462;51.422;5.514;2023-07-28T06:30:46;18.50;99.90
24226;DHT22;51462;51.422;5.514;2023-07-28T06:33:11;18.60;99.90
24226;DHT22;51462;51.422;5.514;2023-07-28T06:35:37;18.60;99.90
24226;DHT22;51462;51.422;5.514;2023-07-28T06:38:03;18.60;99.90
24226;DHT22;51462;51.422;5.514;2023-07-28T06:40:28;18.60;99.90
24226;DHT22;51462;51.422;5.514;2023-07-28T06:42:54;18.60;99.90
24226;DHT22;51462;51.422;5.514;2023-07-28T06:45:20;18.60;99.90
24226;DHT22;51462;51.422;5.514;2023-07-28T06:47:46;18.60;99.90
24226;DHT22;51462;51.422;5.514;2023-07-28T06:50:12;18.70;99.90
24226;DHT22;51462;51.422;5.514;2023-07-28T06:52:38;18.70;99.90
24226;DHT22;51462;51.422;5.514;2023-07-28T06:55:03;18.70;99.90
24226;DHT22;51462;51.422;5.514;2023-07-28T06:57:30;18.70;99.90
24226;DHT22;51462;51.422;5.514;2023-07-28T06:59:56;18.70;99.90
24226;DHT22;51462;51.422;5.514;2023-07-28T07:02:22;18.60;99.90
24226;DHT22;51462;51.422;5.514;2023-07-28T07:04:48;18.60;99.90
24226;DHT22;51462;51.422;5.514;2023-07-28T07:07:13;18.60;99.90
24226;DHT22;51462;51.422;5.514;2023-07-28T07:09:39;18.60;99.90
24226;DHT22;51462;51.422;5.514;2023-07-28T07:12:07;18.60;99.90
24226;DHT22;51462;51.422;5.514;2023-07-28T07:14:33;18.70;99.90
24226;DHT22;51462;51.422;5.514;2023-07-28T07:16:59;18.70;99.90
24226;DHT22;51462;51.422;5.514;2023-07-28T07:19:24;18.70;99.90
24226;DHT22;51462;51.422;5.514;2023-07-28T07:21:50;18.80;99.90
24226;DHT22;51462;51.422;5.514;2023-07-28T07:24:16;18.80;99.90
24226;DHT22;51462;51.422;5.514;2023-07-28T07:26:42;18.70;99.90
24226;DHT22;51462;51.422;5.514;2023-07-28T07:29:08;18.80;99.90
24226;DHT22;51462;51.422;5.514;2023-07-28T07:31:34;18.90;99.90
24226;DHT22;51462;51.422;5.514;2023-07-28T07:34:00;18.90;99.90
24226;DHT22;51462;51.422;5.514;2023-07-28T07:36:26;18.90;99.90
24226;DHT22;51462;51.422;5.514;2023-07-28T07:38:51;18.90;99.90
24226;DHT22;51462;51.422;5.514;2023-07-28T07:41:17;18.90;99.90
24226;DHT22;51462;51.422;5.514;2023-07-28T07:43:50;18.90;99.90
24226;DHT22;51462;51.422;5.514;2023-07-28T07:46:16;18.90;99.90
24226;DHT22;51462;51.422;5.514;2023-07-28T07:48:42;18.90;99.90
24226;DHT22;51462;51.422;5.514;2023-07-28T07:51:08;18.90;99.90
24226;DHT22;51462;51.422;5.514;2023-07-28T07:53:34;19.00;99.90
24226;DHT22;51462;51.422;5.514;2023-07-28T07:56:02;19.00;99.90
24226;DHT22;51462;51.422;5.514;2023-07-28T07:58:28;19.00;99.90
24226;DHT22;51462;51.422;5.514;2023-07-28T08:00:54;19.10;99.90
24226;DHT22;51462;51.422;5.514;2023-07-28T08:03:20;19.00;99.90
24226;DHT22;51462;51.422;5.514;2023-07-28T08:05:46;19.00;99.90
24226;DHT22;51462;51.422;5.514;2023-07-28T08:08:11;19.20;99.90
24226;DHT22;51462;51.422;5.514;2023-07-28T08:10:39;19.10;99.90
24226;DHT22;51462;51.422;5.514;2023-07-28T08:13:04;19.20;99.90
24226;DHT22;51462;51.422;5.514;2023-07-28T08:15:30;19.20;99.90
24226;DHT22;51462;51.422;5.514;2023-07-28T08:17:56;19.10;99.90
24226;DHT22;51462;51.422;5.514;2023-07-28T08:20:21;19.20;99.90
24226;DHT22;51462;51.422;5.514;2023-07-28T08:22:47;19.20;99.90
24226;DHT22;51462;51.422;5.514;2023-07-28T08:25:12;19.30;99.90
24226;DHT22;51462;51.422;5.514;2023-07-28T08:27:38;19.30;99.90
24226;DHT22;51462;51.422;5.514;2023-07-28T08:30:04;19.40;99.90
24226;DHT22;51462;51.422;5.514;2023-07-28T08:32:30;19.40;99.90
24226;DHT22;51462;51.422;5.514;2023-07-28T08:34:56;19.40;99.90
24226;DHT22;51462;51.422;5.514;2023-07-28T08:37:22;19.50;99.90
24226;DHT22;51462;51.422;5.514;2023-07-28T08:39:48;19.50;99.90
24226;DHT22;51462;51.422;5.514;2023-07-28T08:42:13;19.50;99.90
24226;DHT22;51462;51.422;5.514;2023-07-28T08:44:39;19.60;99.90
24226;DHT22;51462;51.422;5.514;2023-07-28T08:47:05;19.60;99.90
24226;DHT22;51462;51.422;5.514;2023-07-28T08:49:32;19.70;99.90
24226;DHT22;51462;51.422;5.514;2023-07-28T08:52:02;19.80;99.90
24226;DHT22;51462;51.422;5.514;2023-07-28T08:54:29;19.80;99.90
24226;DHT22;51462;51.422;5.514;2023-07-28T08:56:55;19.90;99.90
24226;DHT22;51462;51.422;5.514;2023-07-28T08:59:23;20.00;99.90
24226;DHT22;51462;51.422;5.514;2023-07-28T09:01:52;20.10;99.90
24226;DHT22;51462;51.422;5.514;2023-07-28T09:04:19;20.20;99.90
24226;DHT22;51462;51.422;5.514;2023-07-28T09:06:46;20.10;99.90
24226;DHT22;51462;51.422;5.514;2023-07-28T09:09:13;20.20;99.90
24226;DHT22;51462;51.422;5.514;2023-07-28T09:11:49;20.20;99.90
24226;DHT22;51462;51.422;5.514;2023-07-28T09:14:17;20.20;99.90
24226;DHT22;51462;51.422;5.514;2023-07-28T09:16:43;20.20;99.90
24226;DHT22;51462;51.422;5.514;2023-07-28T09:19:10;20.20;99.90
24226;DHT22;51462;51.422;5.514;2023-07-28T09:21:38;20.30;99.90
24226;DHT22;51462;51.422;5.514;2023-07-28T09:24:04;20.40;99.90
24226;DHT22;51462;51.422;5.514;2023-07-28T09:26:42;20.50;99.90
24226;DHT22;51462;51.422;5.514;2023-07-28T09:31:38;20.50;99.90
24226;DHT22;51462;51.422;5.514;2023-07-28T09:34:07;20.60;99.90
24226;DHT22;51462;51.422;5.514;2023-07-28T09:36:34;20.70;99.90
24226;DHT22;51462;51.422;5.514;2023-07-28T09:39:01;20.70;99.90
24226;DHT22;51462;51.422;5.514;2023-07-28T09:41:29;20.70;99.90
24226;DHT22;51462;51.422;5.514;2023-07-28T09:43:55;20.70;99.90
24226;DHT22;51462;51.422;5.514;2023-07-28T09:46:22;20.80;99.90
24226;DHT22;51462;51.422;5.514;2023-07-28T09:48:52;20.70;99.90
24226;DHT22;51462;51.422;5.514;2023-07-28T09:51:21;20.80;99.90
24226;DHT22;51462;51.422;5.514;2023-07-28T09:53:56;20.80;99.90
24226;DHT22;51462;51.422;5.514;2023-07-28T09:56:27;20.80;99.90
24226;DHT22;51462;51.422;5.514;2023-07-28T09:58:56;20.80;99.90
24226;DHT22;51462;51.422;5.514;2023-07-28T10:01:23;20.80;99.90
24226;DHT22;51462;51.422;5.514;2023-07-28T10:03:49;20.90;99.90
24226;DHT22;51462;51.422;5.514;2023-07-28T10:06:16;20.80;99.90
24226;DHT22;51462;51.422;5.514;2023-07-28T10:08:43;20.80;99.90
24226;DHT22;51462;51.422;5.514;2023-07-28T10:11:14;20.90;99.90
24226;DHT22;51462;51.422;5.514;2023-07-28T10:13:41;20.90;99.90
24226;DHT22;51462;51.422;5.514;2023-07-28T10:16:08;21.00;99.90
24226;DHT22;51462;51.422;5.514;2023-07-28T10:18:36;21.10;99.90
24226;DHT22;51462;51.422;5.514;2023-07-28T10:21:07;21.10;99.90
24226;DHT22;51462;51.422;5.514;2023-07-28T10:23:34;21.30;99.90
24226;DHT22;51462;51.422;5.514;2023-07-28T10:26:04;21.20;99.90
24226;DHT22;51462;51.422;5.514;2023-07-28T10:31:05;21.30;99.90
24226;DHT22;51462;51.422;5.514;2023-07-28T10:33:36;21.40;99.90
24226;DHT22;51462;51.422;5.514;2023-07-28T10:36:32;21.40;99.90
24226;DHT22;51462;51.422;5.514;2023-07-28T10:41:35;21.50;99.90
24226;DHT22;51462;51.422;5.514;2023-07-28T10:44:01;21.60;99.90
24226;DHT22;51462;51.422;5.514;2023-07-28T10:46:27;21.40;99.90
24226;DHT22;51462;51.422;5.514;2023-07-28T10:48:53;21.50;99.90
24226;DHT22;51462;51.422;5.514;2023-07-28T10:51:23;21.50;99.90
24226;DHT22;51462;51.422;5.514;2023-07-28T10:53:56;21.80;99.90
24226;DHT22;51462;51.422;5.514;2023-07-28T10:56:23;21.90;99.90
24226;DHT22;51462;51.422;5.514;2023-07-28T10:59:02;21.80;99.90
24226;DHT22;51462;51.422;5.514;2023-07-28T11:01:40;22.00;99.90
24226;DHT22;51462;51.422;5.514;2023-07-28T11:04:26;22.00;99.90
24226;DHT22;51462;51.422;5.514;2023-07-28T11:06:52;21.80;99.90
24226;DHT22;51462;51.422;5.514;2023-07-28T11:09:19;22.20;99.90
24226;DHT22;51462;51.422;5.514;2023-07-28T11:11:46;22.20;99.90
24226;DHT22;51462;51.422;5.514;2023-07-28T11:14:12;22.40;99.90
24226;DHT22;51462;51.422;5.514;2023-07-28T11:16:41;22.50;99.90
24226;DHT22;51462;51.422;5.514;2023-07-28T11:19:11;22.70;99.90
24226;DHT22;51462;51.422;5.514;2023-07-28T11:21:41;22.70;99.90
24226;DHT22;51462;51.422;5.514;2023-07-28T11:24:07;23.10;99.90
24226;DHT22;51462;51.422;5.514;2023-07-28T11:26:36;23.20;99.90
24226;DHT22;51462;51.422;5.514;2023-07-28T11:29:02;23.10;99.90
24226;DHT22;51462;51.422;5.514;2023-07-28T11:31:28;22.90;99.90
24226;DHT22;51462;51.422;5.514;2023-07-28T11:33:54;22.70;99.90
24226;DHT22;51462;51.422;5.514;2023-07-28T11:36:27;22.60;99.90
24226;DHT22;51462;51.422;5.514;2023-07-28T11:38:53;22.50;99.90
24226;DHT22;51462;51.422;5.514;2023-07-28T11:41:20;22.70;99.90
24226;DHT22;51462;51.422;5.514;2023-07-28T11:43:50;22.80;99.90
24226;DHT22;51462;51.422;5.514;2023-07-28T11:49:16;22.80;99.90
24226;DHT22;51462;51.422;5.514;2023-07-28T11:51:45;22.90;99.90
24226;DHT22;51462;51.422;5.514;2023-07-28T11:54:18;22.80;99.90
24226;DHT22;51462;51.422;5.514;2023-07-28T11:56:48;22.80;99.90
24226;DHT22;51462;51.422;5.514;2023-07-28T11:59:18;22.80;99.90
24226;DHT22;51462;51.422;5.514;2023-07-28T12:02:01;22.80;99.90
24226;DHT22;51462;51.422;5.514;2023-07-28T12:04:37;22.70;99.90
24226;DHT22;51462;51.422;5.514;2023-07-28T12:07:08;22.80;99.90
24226;DHT22;51462;51.422;5.514;2023-07-28T12:12:12;22.70;99.90
24226;DHT22;51462;51.422;5.514;2023-07-28T12:14:38;22.70;99.90
24226;DHT22;51462;51.422;5.514;2023-07-28T12:17:15;22.70;99.90
24226;DHT22;51462;51.422;5.514;2023-07-28T12:19:54;22.70;99.90
24226;DHT22;51462;51.422;5.514;2023-07-28T12:22:20;22.50;99.90
24226;DHT22;51462;51.422;5.514;2023-07-28T12:24:45;22.60;99.90
24226;DHT22;51462;51.422;5.514;2023-07-28T12:27:11;22.60;99.90
24226;DHT22;51462;51.422;5.514;2023-07-28T12:29:38;22.80;99.90
24226;DHT22;51462;51.422;5.514;2023-07-28T12:32:04;22.80;99.90
24226;DHT22;51462;51.422;5.514;2023-07-28T12:34:30;22.80;99.90
24226;DHT22;51462;51.422;5.514;2023-07-28T12:36:56;22.80;99.90
24226;DHT22;51462;51.422;5.514;2023-07-28T12:39:21;22.90;99.90
24226;DHT22;51462;51.422;5.514;2023-07-28T12:41:47;22.80;99.90
24226;DHT22;51462;51.422;5.514;2023-07-28T12:44:13;22.80;99.90
24226;DHT22;51462;51.422;5.514;2023-07-28T12:46:39;22.90;99.90
24226;DHT22;51462;51.422;5.514;2023-07-28T12:49:04;23.00;99.90
24226;DHT22;51462;51.422;5.514;2023-07-28T12:51:32;22.90;99.90
24226;DHT22;51462;51.422;5.514;2023-07-28T12:53:58;23.20;99.90
24226;DHT22;51462;51.422;5.514;2023-07-28T12:56:23;23.20;99.90
24226;DHT22;51462;51.422;5.514;2023-07-28T12:58:49;23.30;99.90
24226;DHT22;51462;51.422;5.514;2023-07-28T13:01:15;23.40;99.90
24226;DHT22;51462;51.422;5.514;2023-07-28T13:03:40;23.40;99.90
24226;DHT22;51462;51.422;5.514;2023-07-28T13:06:06;23.40;99.90
24226;DHT22;51462;51.422;5.514;2023-07-28T13:08:31;23.50;99.90
24226;DHT22;51462;51.422;5.514;2023-07-28T13:10:57;23.40;99.90
24226;DHT22;51462;51.422;5.514;2023-07-28T13:13:23;23.40;99.90
24226;DHT22;51462;51.422;5.514;2023-07-28T13:15:48;23.60;99.90
24226;DHT22;51462;51.422;5.514;2023-07-28T13:18:14;23.50;99.90
24226;DHT22;51462;51.422;5.514;2023-07-28T13:20:40;23.50;99.90
24226;DHT22;51462;51.422;5.514;2023-07-28T13:23:05;23.50;99.90
24226;DHT22;51462;51.422;5.514;2023-07-28T13:25:31;23.90;99.90
24226;DHT22;51462;51.422;5.514;2023-07-28T13:27:56;23.80;99.90
24226;DHT22;51462;51.422;5.514;2023-07-28T13:30:22;23.90;99.90
24226;DHT22;51462;51.422;5.514;2023-07-28T13:32:47;24.00;99.90
24226;DHT22;51462;51.422;5.514;2023-07-28T13:35:13;23.90;99.90
24226;DHT22;51462;51.422;5.514;2023-07-28T13:37:40;23.90;99.90
24226;DHT22;51462;51.422;5.514;2023-07-28T13:40:06;23.90;99.90
24226;DHT22;51462;51.422;5.514;2023-07-28T13:42:31;23.90;99.90
24226;DHT22;51462;51.422;5.514;2023-07-28T13:44:57;23.80;99.90
24226;DHT22;51462;51.422;5.514;2023-07-28T13:47:23;24.00;99.90
24226;DHT22;51462;51.422;5.514;2023-07-28T13:49:48;24.00;99.90
24226;DHT22;51462;51.422;5.514;2023-07-28T13:52:14;23.90;99.90
24226;DHT22;51462;51.422;5.514;2023-07-28T13:54:39;23.90;99.90
24226;DHT22;51462;51.422;5.514;2023-07-28T13:57:05;23.90;99.90
24226;DHT22;51462;51.422;5.514;2023-07-28T13:59:31;24.10;99.90
24226;DHT22;51462;51.422;5.514;2023-07-28T14:01:56;24.20;99.90
24226;DHT22;51462;51.422;5.514;2023-07-28T14:04:23;24.20;99.90
24226;DHT22;51462;51.422;5.514;2023-07-28T14:06:49;23.90;99.90
24226;DHT22;51462;51.422;5.514;2023-07-28T14:09:15;23.90;99.90
24226;DHT22;51462;51.422;5.514;2023-07-28T14:11:40;24.00;99.90
24226;DHT22;51462;51.422;5.514;2023-07-28T14:14:06;23.90;99.90
24226;DHT22;51462;51.422;5.514;2023-07-28T14:16:31;23.60;99.90
24226;DHT22;51462;51.422;5.514;2023-07-28T14:18:57;23.60;99.90
24226;DHT22;51462;51.422;5.514;2023-07-28T14:21:23;23.60;99.90
24226;DHT22;51462;51.422;5.514;2023-07-28T14:23:48;23.60;99.90
24226;DHT22;51462;51.422;5.514;2023-07-28T14:26:14;23.40;99.90
24226;DHT22;51462;51.422;5.514;2023-07-28T14:28:39;23.50;99.90
24226;DHT22;51462;51.422;5.514;2023-07-28T14:31:05;23.60;99.90
24226;DHT22;51462;51.422;5.514;2023-07-28T14:33:31;23.80;99.90
24226;DHT22;51462;51.422;5.514;2023-07-28T14:35:56;23.80;99.90
24226;DHT22;51462;51.422;5.514;2023-07-28T14:38:22;23.70;99.90
24226;DHT22;51462;51.422;5.514;2023-07-28T14:40:47;23.80;99.90
24226;DHT22;51462;51.422;5.514;2023-07-28T14:43:15;23.70;99.90
24226;DHT22;51462;51.422;5.514;2023-07-28T14:45:41;23.60;99.90
24226;DHT22;51462;51.422;5.514;2023-07-28T14:48:07;23.60;99.90
24226;DHT22;51462;51.422;5.514;2023-07-28T14:50:32;23.60;99.90
24226;DHT22;51462;51.422;5.514;2023-07-28T14:52:58;23.70;99.90
24226;DHT22;51462;51.422;5.514;2023-07-28T14:55:25;23.80;99.90
24226;DHT22;51462;51.422;5.514;2023-07-28T14:57:50;23.70;99.90
24226;DHT22;51462;51.422;5.514;2023-07-28T15:00:17;23.60;99.90
24226;DHT22;51462;51.422;5.514;2023-07-28T15:02:42;23.60;99.90
24226;DHT22;51462;51.422;5.514;2023-07-28T15:05:08;23.60;99.90
24226;DHT22;51462;51.422;5.514;2023-07-28T15:07:34;23.60;99.90
24226;DHT22;51462;51.422;5.514;2023-07-28T15:10:01;23.60;99.90
24226;DHT22;51462;51.422;5.514;2023-07-28T15:12:27;23.50;99.90
24226;DHT22;51462;51.422;5.514;2023-07-28T15:14:54;23.50;99.90
24226;DHT22;51462;51.422;5.514;2023-07-28T15:17:20;23.50;99.90
24226;DHT22;51462;51.422;5.514;2023-07-28T15:19:46;23.40;99.90
24226;DHT22;51462;51.422;5.514;2023-07-28T15:22:11;23.40;99.90
24226;DHT22;51462;51.422;5.514;2023-07-28T15:24:37;23.50;99.90
24226;DHT22;51462;51.422;5.514;2023-07-28T15:27:03;23.50;99.90
24226;DHT22;51462;51.422;5.514;2023-07-28T15:29:29;23.40;99.90
24226;DHT22;51462;51.422;5.514;2023-07-28T15:31:54;23.40;99.90
24226;DHT22;51462;51.422;5.514;2023-07-28T15:34:20;23.50;99.90
24226;DHT22;51462;51.422;5.514;2023-07-28T15:36:47;23.70;99.90
24226;DHT22;51462;51.422;5.514;2023-07-28T15:39:13;23.90;99.90
24226;DHT22;51462;51.422;5.514;2023-07-28T15:41:38;24.00;99.90